Disclaimer

Please do not use the information listed here in-flight or in-navigation, as they are not provided to us by the airports but are provided by volunteers, so they might be outdated.

Search


Regions


Airport information page

Radio informations:
INFO - 119.4 MHz

Airport informations:
Latitude: 48° 32' 16.00" N
Longitude: 002° 51' 16.00" W
Elevation: 453 feet - 138 meters
Operating hours: Remarks
Operating agency: Civil government, landing fees and diplomatic clearance may be required
Timezone: UTC+1(+2DT) - Last Sunday in March to last Sunday in October
Fuel: Jet A1, without icing nhibitor.

100/130 MIL Spec, low lead, aviation gasoline (BLUE)

Runway information:
06/24 - 7218 x 148 feet< - >2200 x 45 meters

Recent METARs:
LFRT 192100Z AUTO 00000KT CAVOK 03/M00 Q1009
LFRT 192130Z AUTO 00000KT CAVOK 03/M01 Q1009
LFRT 192200Z AUTO 13002KT 9999 FEW040 SCT062 BKN072 03/M01 Q1009

Airport on the map: